createdAt,value
2019-01-28T00:00:16.869Z,50.97
2019-01-28T00:02:48.139Z,53.20
2019-01-28T00:05:18.829Z,51.43
2019-01-28T00:07:49.559Z,50.97
2019-01-28T00:10:20.238Z,51.77
2019-01-28T00:12:50.889Z,54.43
2019-01-28T00:15:21.449Z,49.57
2019-01-28T00:17:52.319Z,52.97
2019-01-28T00:20:23.169Z,51.67
2019-01-28T00:22:53.909Z,48.83
2019-01-28T00:25:24.911Z,53.50
2019-01-28T00:27:55.559Z,50.07
2019-01-28T00:30:26.449Z,50.67
2019-01-28T00:32:57.314Z,53.27
2019-01-28T00:35:27.764Z,54.10
2019-01-28T00:37:58.384Z,55.60
2019-01-28T00:40:29.057Z,53.67
2019-01-28T00:42:59.714Z,54.63
2019-01-28T00:45:30.334Z,51.20
2019-01-28T00:48:01.069Z,50.93
2019-01-28T00:50:31.699Z,53.93
2019-01-28T00:53:02.334Z,55.63
2019-01-28T00:55:33.009Z,56.77
2019-01-28T00:58:03.725Z,58.27
2019-01-28T01:00:34.721Z,55.27
2019-01-28T01:03:06.361Z,58.27
2019-01-28T01:05:37.348Z,56.83
2019-01-28T01:08:08.223Z,57.10
2019-01-28T01:10:39.155Z,54.70
2019-01-28T01:13:09.704Z,52.60
2019-01-28T01:15:40.274Z,56.93
2019-01-28T01:18:11.080Z,58.00
2019-01-28T01:20:41.754Z,57.07
2019-01-28T01:23:12.479Z,59.07
2019-01-28T01:25:43.244Z,58.83
2019-01-28T01:28:13.774Z,53.57
2019-01-28T01:30:44.354Z,56.73
2019-01-28T01:33:14.973Z,55.07
2019-01-28T01:35:45.559Z,55.63
2019-01-28T01:38:16.184Z,59.13
2019-01-28T01:40:47.083Z,52.90
2019-01-28T01:43:17.831Z,57.07
2019-01-28T01:45:48.313Z,58.63
2019-01-28T01:48:19.064Z,56.17
2019-01-28T01:50:49.693Z,61.07
2019-01-28T01:53:20.353Z,62.33
2019-01-28T01:55:51.013Z,61.87
2019-01-28T01:58:21.574Z,61.13
2019-01-28T02:00:52.203Z,60.37
2019-01-28T02:03:23.363Z,61.90
2019-01-28T02:05:54.194Z,63.53
2019-01-28T02:08:24.706Z,58.20
2019-01-28T02:10:55.543Z,59.10
2019-01-28T02:13:26.198Z,59.30
2019-01-28T02:15:56.793Z,58.97
2019-01-28T02:18:27.475Z,58.70
2019-01-28T02:20:58.064Z,59.90
2019-01-28T02:23:28.679Z,60.33
2019-01-28T02:25:59.329Z,54.77
2019-01-28T02:28:29.879Z,57.87
2019-01-28T02:31:00.413Z,59.33
2019-01-28T02:33:30.979Z,58.80
2019-01-28T02:36:01.606Z,57.93
2019-01-28T02:38:32.126Z,55.87
2019-01-28T02:41:02.881Z,53.10
2019-01-28T02:43:33.574Z,55.40
2019-01-28T02:46:04.318Z,57.77
2019-01-28T02:48:35.109Z,59.67
2019-01-28T02:51:05.744Z,59.90
2019-01-28T02:53:36.297Z,59.10
2019-01-28T02:56:07.059Z,53.50
2019-01-28T02:58:37.690Z,55.40
2019-01-28T03:01:08.255Z,49.20
2019-01-28T03:03:39.009Z,53.77
2019-01-28T03:06:09.654Z,58.30
2019-01-28T03:08:40.346Z,52.83
2019-01-28T03:11:11.254Z,58.63
2019-01-28T03:13:41.921Z,51.43
2019-01-28T03:16:12.566Z,58.13
2019-01-28T03:18:55.999Z,54.27
2019-01-28T03:21:26.659Z,56.77
2019-01-28T03:23:57.215Z,58.67
2019-01-28T03:26:27.966Z,55.57
2019-01-28T03:28:58.669Z,59.83
2019-01-28T03:31:29.305Z,58.37
2019-01-28T03:34:00.124Z,54.83
2019-01-28T03:36:30.814Z,59.97
2019-01-28T03:39:01.499Z,57.07
2019-01-28T03:41:32.439Z,56.70
2019-01-28T03:44:02.984Z,56.70
2019-01-28T03:46:33.614Z,56.27
2019-01-28T03:49:04.377Z,52.57
2019-01-28T03:51:34.944Z,55.97
2019-01-28T03:54:05.716Z,58.60
2019-01-28T03:56:36.954Z,49.60
2019-01-28T03:59:07.635Z,59.63
2019-01-28T04:01:38.235Z,55.77
2019-01-28T04:04:09.019Z,59.57
2019-01-28T04:06:39.674Z,59.80
2019-01-28T04:09:11.194Z,49.90
2019-01-28T04:11:41.861Z,54.00
2019-01-28T04:14:12.424Z,57.57
2019-01-28T04:16:42.876Z,53.33
2019-01-28T04:19:13.564Z,53.63
2019-01-28T04:21:44.435Z,58.90
2019-01-28T04:24:14.929Z,55.90
2019-01-28T04:26:45.594Z,55.70
2019-01-28T04:29:16.338Z,54.87
2019-01-28T04:31:46.859Z,55.13
2019-01-28T04:34:17.649Z,56.17
2019-01-28T04:36:48.358Z,58.57
2019-01-28T04:39:18.955Z,52.37
2019-01-28T04:41:49.715Z,55.33
2019-01-28T04:44:20.319Z,54.63
2019-01-28T04:46:51.383Z,40.63
2019-01-28T04:49:22.034Z,50.73
2019-01-28T04:51:52.599Z,58.20
2019-01-28T04:54:23.204Z,48.40
2019-01-28T04:56:53.885Z,54.20
2019-01-28T04:59:24.514Z,55.47
2019-01-28T05:01:55.164Z,57.53
2019-01-28T05:04:25.714Z,55.47
2019-01-28T05:06:56.284Z,58.43
2019-01-28T05:09:26.945Z,59.60
2019-01-28T05:11:57.618Z,58.63
2019-01-28T05:14:28.244Z,51.70
2019-01-28T05:16:58.759Z,42.63
2019-01-28T05:19:30.738Z,50.43
2019-01-28T05:22:01.521Z,48.90
2019-01-28T05:24:31.994Z,39.10
2019-01-28T05:27:02.774Z,52.03
2019-01-28T05:29:33.435Z,46.60
2019-01-28T05:32:04.055Z,50.43
2019-01-28T05:34:34.730Z,49.27
2019-01-28T05:37:05.475Z,48.37
2019-01-28T05:39:35.999Z,39.43
2019-01-28T05:42:06.753Z,38.03
2019-01-28T05:44:37.514Z,42.47
2019-01-28T05:47:08.130Z,45.77
2019-01-28T05:49:38.882Z,41.27
2019-01-28T05:52:09.684Z,46.73
2019-01-28T05:54:40.268Z,47.83
2019-01-28T05:57:10.986Z,47.80
2019-01-28T05:59:41.565Z,42.70
2019-01-28T06:02:12.093Z,45.17
2019-01-28T06:04:42.764Z,50.03
2019-01-28T06:07:13.239Z,49.03
2019-01-28T06:09:44.125Z,53.47
2019-01-28T06:12:14.894Z,49.47
2019-01-28T06:14:45.369Z,37.63
2019-01-28T06:17:16.034Z,49.70
2019-01-28T06:19:46.773Z,48.40
2019-01-28T06:22:17.392Z,37.67
2019-01-28T06:24:48.030Z,47.07
2019-01-28T06:27:18.718Z,46.23
2019-01-28T06:29:50.304Z,42.13
2019-01-28T06:32:21.171Z,37.70
2019-01-28T06:34:52.134Z,54.07
2019-01-28T06:37:23.069Z,38.67
2019-01-28T06:39:53.629Z,48.77
2019-01-28T06:42:24.365Z,54.00
2019-01-28T06:44:55.037Z,44.47
2019-01-28T06:47:25.789Z,54.23
2019-01-28T06:49:56.414Z,49.30
2019-01-28T06:52:27.010Z,46.80
2019-01-28T06:54:57.654Z,42.13
2019-01-28T06:57:28.244Z,52.63
2019-01-28T06:59:58.862Z,48.87
2019-01-28T07:02:29.414Z,43.27
2019-01-28T07:05:00.098Z,46.17
2019-01-28T07:07:30.739Z,40.37
2019-01-28T07:10:01.259Z,44.60
2019-01-28T07:12:31.864Z,45.17
2019-01-28T07:15:02.470Z,44.60
2019-01-28T07:17:33.035Z,31.37
2019-01-28T07:20:03.744Z,37.37
2019-01-28T07:22:34.266Z,50.80
2019-01-28T07:25:06.449Z,45.43
2019-01-28T07:27:37.239Z,47.27
2019-01-28T07:30:09.553Z,40.27
2019-01-28T07:32:40.160Z,44.93
2019-01-28T07:35:11.356Z,46.70
2019-01-28T07:37:41.931Z,48.80
2019-01-28T07:40:12.999Z,43.37
2019-01-28T07:42:43.729Z,46.27
2019-01-28T07:45:17.979Z,36.10
2019-01-28T07:47:48.811Z,33.87
2019-01-28T07:50:19.514Z,47.50
2019-01-28T07:52:50.053Z,38.43
2019-01-28T07:55:20.789Z,35.13
2019-01-28T07:57:51.414Z,36.50
2019-01-28T08:00:24.699Z,39.43
2019-01-28T08:02:55.370Z,53.60
2019-01-28T08:05:25.969Z,47.57
2019-01-28T08:07:56.674Z,45.43
2019-01-28T08:10:27.328Z,51.70
2019-01-28T08:12:57.968Z,51.47
2019-01-28T08:15:29.623Z,46.27
2019-01-28T08:18:00.234Z,44.77
2019-01-28T08:20:30.999Z,35.77
2019-01-28T08:23:01.657Z,39.33
2019-01-28T08:25:32.593Z,36.40
2019-01-28T08:28:03.159Z,42.00
2019-01-28T08:30:36.635Z,39.07
2019-01-28T08:33:07.345Z,49.33
2019-01-28T08:35:38.804Z,38.87
2019-01-28T08:38:10.014Z,43.27
2019-01-28T08:40:40.849Z,47.57
2019-01-28T08:43:11.439Z,49.37
2019-01-28T08:45:42.304Z,37.63
2019-01-28T08:48:18.193Z,52.17
2019-01-28T08:50:45.139Z,46.47
2019-01-28T08:53:15.698Z,48.20
2019-01-28T08:55:46.194Z,40.80
2019-01-28T08:58:16.754Z,42.80
2019-01-28T09:00:47.568Z,42.70
2019-01-28T09:03:18.213Z,50.53
2019-01-28T09:05:48.809Z,51.90
2019-01-28T09:08:19.479Z,46.80
2019-01-28T09:10:50.055Z,49.77
2019-01-28T09:13:20.623Z,47.70
2019-01-28T09:15:51.289Z,54.40
2019-01-28T09:18:26.527Z,49.27
2019-01-28T09:20:54.039Z,48.83
2019-01-28T09:23:24.858Z,41.30
2019-01-28T09:25:55.360Z,46.77
2019-01-28T09:28:25.915Z,49.37
2019-01-28T09:30:56.543Z,49.83
2019-01-28T09:33:27.114Z,45.83
2019-01-28T09:35:57.674Z,48.77
2019-01-28T09:38:28.349Z,47.37
2019-01-28T09:40:58.923Z,41.83
2019-01-28T09:43:29.599Z,48.80
2019-01-28T09:46:00.609Z,45.77
2019-01-28T09:48:34.440Z,43.63
2019-01-28T09:51:03.378Z,42.60
2019-01-28T09:53:34.115Z,43.43
2019-01-28T09:56:05.074Z,41.73
2019-01-28T09:58:35.584Z,42.00
2019-01-28T10:01:06.610Z,43.50
2019-01-28T10:03:37.179Z,40.43
2019-01-28T10:06:07.754Z,36.00
2019-01-28T10:08:38.590Z,37.37
2019-01-28T10:11:09.279Z,35.40
2019-01-28T10:13:39.973Z,36.03
2019-01-28T10:16:10.929Z,35.77
2019-01-28T10:18:43.245Z,31.87
2019-01-28T10:21:13.948Z,34.17
2019-01-28T10:23:44.916Z,35.80
2019-01-28T10:26:15.474Z,34.23
2019-01-28T10:28:46.564Z,32.03
2019-01-28T10:31:17.419Z,33.00
2019-01-28T10:33:48.162Z,32.80
2019-01-28T10:36:22.608Z,32.07
2019-01-28T10:38:51.494Z,30.10
2019-01-28T10:41:22.402Z,29.93
2019-01-28T10:43:53.060Z,30.30
2019-01-28T10:46:23.644Z,28.23
2019-01-28T10:48:54.225Z,25.80
2019-01-28T10:51:24.897Z,26.27
2019-01-28T10:53:55.544Z,34.77
2019-01-28T10:56:26.244Z,34.07
2019-01-28T10:58:56.815Z,35.00
2019-01-28T11:01:27.508Z,35.37
2019-01-28T11:03:58.019Z,30.80
2019-01-28T11:06:28.745Z,30.40
2019-01-28T11:08:59.594Z,30.43
2019-01-28T11:11:30.148Z,39.03
2019-01-28T11:14:00.779Z,35.77
2019-01-28T11:16:31.589Z,40.63
2019-01-28T11:19:02.304Z,34.77
2019-01-28T11:21:33.009Z,35.67
2019-01-28T11:24:04.221Z,40.30
2019-01-28T11:26:34.890Z,39.53
2019-01-28T11:29:06.045Z,40.20
2019-01-28T11:31:37.067Z,40.70
2019-01-28T11:34:07.713Z,41.10
2019-01-28T11:36:38.751Z,42.17
2019-01-28T11:39:11.417Z,38.37
2019-01-28T11:41:42.180Z,39.87
2019-01-28T11:44:12.977Z,40.90
2019-01-28T11:46:44.321Z,39.37
2019-01-28T11:49:15.142Z,37.67
2019-01-28T11:51:45.704Z,36.83
2019-01-28T11:54:16.331Z,37.33
2019-01-28T11:56:47.284Z,38.73
2019-01-28T11:59:17.914Z,38.23
2019-01-28T12:01:48.679Z,38.07
2019-01-28T12:04:19.364Z,38.07
2019-01-28T12:06:49.884Z,36.37
2019-01-28T12:09:20.887Z,38.80
2019-01-28T12:11:51.584Z,37.53
2019-01-28T12:14:22.189Z,36.87
2019-01-28T12:16:53.043Z,33.93
2019-01-28T12:19:24.099Z,35.73
2019-01-28T12:21:55.129Z,35.47
2019-01-28T12:24:25.798Z,35.90
2019-01-28T12:26:56.329Z,35.83
2019-01-28T12:29:26.939Z,32.13
2019-01-28T12:31:57.919Z,34.57
2019-01-28T12:34:28.639Z,34.80
2019-01-28T12:36:59.289Z,31.27
2019-01-28T12:39:30.024Z,32.60
2019-01-28T12:42:00.928Z,34.07
2019-01-28T12:44:31.814Z,31.97
2019-01-28T12:47:03.110Z,31.60
2019-01-28T12:49:34.344Z,32.03
2019-01-28T12:52:05.023Z,31.57
2019-01-28T12:54:35.719Z,30.60
2019-01-28T12:57:06.449Z,30.57
2019-01-28T12:59:37.048Z,29.43
2019-01-28T13:02:07.750Z,31.77
2019-01-28T13:04:42.235Z,27.57
2019-01-28T13:07:10.844Z,29.87
2019-01-28T13:09:41.813Z,27.83
2019-01-28T13:12:12.736Z,27.20
2019-01-28T13:14:43.844Z,29.40
2019-01-28T13:17:14.454Z,28.67
2019-01-28T13:19:44.924Z,27.00
2019-01-28T13:22:15.569Z,26.40
2019-01-28T13:24:46.404Z,24.90
2019-01-28T13:27:17.653Z,25.27
2019-01-28T13:29:48.339Z,28.83
2019-01-28T13:32:18.955Z,25.73
2019-01-28T13:34:49.644Z,23.77
2019-01-28T13:37:20.594Z,26.03
2019-01-28T13:39:51.274Z,29.30
2019-01-28T13:42:21.869Z,26.13
2019-01-28T13:44:52.445Z,25.47
2019-01-28T13:47:23.276Z,25.70
2019-01-28T13:49:54.019Z,24.20
2019-01-28T13:52:24.584Z,26.47
2019-01-28T13:54:55.434Z,20.07
2019-01-28T13:57:26.718Z,21.23
2019-01-28T13:59:57.599Z,19.67
2019-01-28T14:02:28.414Z,18.57
2019-01-28T14:04:59.169Z,22.77
2019-01-28T14:07:29.769Z,20.27
2019-01-28T14:10:00.779Z,20.53
2019-01-28T14:12:31.392Z,19.20
2019-01-28T14:15:02.414Z,22.70
2019-01-28T14:17:34.334Z,23.70
2019-01-28T14:20:05.658Z,21.20
2019-01-28T14:22:36.379Z,22.73
2019-01-28T14:25:08.221Z,24.10
2019-01-28T14:27:38.964Z,20.20
2019-01-28T14:30:13.240Z,20.53
2019-01-28T14:32:43.895Z,21.27
2019-01-28T14:35:14.604Z,21.00
2019-01-28T14:37:45.614Z,22.60
2019-01-28T14:40:18.254Z,21.00
2019-01-28T14:42:49.004Z,22.57
2019-01-28T14:45:19.659Z,23.10
2019-01-28T14:47:50.325Z,24.03
2019-01-28T14:50:24.084Z,24.17
2019-01-28T14:52:54.718Z,24.33
2019-01-28T14:55:26.509Z,24.43
2019-01-28T14:57:57.449Z,23.47
2019-01-28T15:00:33.424Z,23.33
2019-01-28T15:03:04.199Z,21.83
2019-01-28T15:05:35.014Z,22.60
2019-01-28T15:08:06.069Z,22.20
2019-01-28T15:10:37.143Z,23.03
2019-01-28T15:13:08.183Z,21.10
2019-01-28T15:15:39.789Z,22.00
2019-01-28T15:18:13.000Z,19.33
2019-01-28T15:20:43.761Z,20.67
2019-01-28T15:23:14.754Z,20.07
2019-01-28T15:25:46.206Z,20.53
2019-01-28T15:28:16.939Z,18.77
2019-01-28T15:30:47.602Z,18.73
2019-01-28T15:33:18.591Z,18.83
2019-01-28T15:35:49.619Z,18.97
2019-01-28T15:38:20.195Z,17.63
2019-01-28T15:40:51.538Z,18.03
2019-01-28T15:43:22.479Z,16.43
2019-01-28T15:45:53.289Z,17.07
2019-01-28T15:48:24.189Z,16.10
2019-01-28T15:50:55.094Z,17.83
2019-01-28T15:53:26.415Z,16.57
2019-01-28T15:55:57.419Z,17.07
2019-01-28T15:58:28.154Z,16.83
2019-01-28T16:00:59.189Z,16.93
2019-01-28T16:03:29.985Z,17.63
2019-01-28T16:06:00.574Z,17.47
2019-01-28T16:08:31.199Z,18.27
2019-01-28T16:11:01.879Z,20.77
2019-01-28T16:13:32.592Z,18.57
2019-01-28T16:16:03.284Z,16.87
2019-01-28T16:18:34.985Z,17.50
2019-01-28T16:21:07.352Z,19.53
2019-01-28T16:23:38.354Z,18.60
2019-01-28T16:29:02.764Z,17.50
2019-01-28T16:31:33.684Z,19.30
2019-01-28T16:34:04.700Z,19.93
2019-01-28T16:36:35.934Z,26.07
2019-01-28T16:39:09.775Z,19.50
2019-01-28T16:41:40.644Z,19.27
2019-01-28T16:44:11.219Z,18.87
2019-01-28T16:46:42.174Z,20.00
2019-01-28T16:49:14.491Z,19.57
2019-01-28T16:51:45.624Z,20.13
2019-01-28T16:54:16.664Z,19.33
2019-01-28T16:56:47.379Z,19.23
2019-01-28T16:59:18.259Z,21.23
2019-01-28T17:01:49.304Z,21.73
2019-01-28T17:04:20.539Z,23.33
2019-01-28T17:06:51.614Z,39.10
2019-01-28T17:09:22.640Z,27.20
2019-01-28T17:11:53.624Z,45.07
2019-01-28T17:14:24.485Z,29.90
2019-01-28T17:16:55.734Z,20.03
2019-01-28T17:19:27.015Z,28.07
2019-01-28T17:21:57.855Z,24.37
2019-01-28T17:24:28.794Z,26.70
2019-01-28T17:26:59.614Z,22.77
2019-01-28T17:29:30.589Z,25.83
2019-01-28T17:32:02.050Z,25.07
2019-01-28T17:34:32.999Z,29.30
2019-01-28T17:37:04.124Z,26.30
2019-01-28T17:39:35.147Z,19.97
2019-01-28T17:42:06.122Z,23.53
2019-01-28T17:44:36.939Z,21.47
2019-01-28T17:47:07.589Z,21.10
2019-01-28T17:49:40.313Z,19.33
2019-01-28T17:52:11.694Z,17.00
2019-01-28T17:54:42.794Z,19.87
2019-01-28T17:57:14.124Z,18.40
2019-01-28T17:59:45.104Z,20.63
2019-01-28T18:02:16.039Z,20.03
2019-01-28T18:04:46.653Z,20.23
2019-01-28T18:07:17.770Z,20.37
2019-01-28T18:09:48.515Z,19.73
2019-01-28T18:12:19.557Z,20.97
2019-01-28T18:14:50.574Z,21.13
2019-01-28T18:17:23.330Z,22.10
2019-01-28T18:19:54.485Z,19.83
2019-01-28T18:22:27.006Z,19.27
2019-01-28T18:24:59.079Z,20.57
2019-01-28T18:27:30.007Z,28.10
2019-01-28T18:30:01.414Z,31.57
2019-01-28T18:32:32.524Z,31.93
2019-01-28T18:35:03.859Z,26.77
2019-01-28T18:37:34.654Z,22.50
2019-01-28T18:40:06.294Z,23.17
2019-01-28T18:42:36.900Z,24.90
2019-01-28T18:45:08.934Z,25.57
2019-01-28T18:47:39.619Z,28.63
2019-01-28T18:50:12.939Z,25.80
2019-01-28T18:52:43.650Z,30.93
2019-01-28T18:55:14.905Z,27.70
2019-01-28T18:57:45.916Z,24.80
2019-01-28T19:00:19.799Z,25.27
2019-01-28T19:02:50.400Z,21.90
2019-01-28T19:05:34.954Z,22.17
2019-01-28T19:08:10.254Z,30.40
2019-01-28T19:10:49.329Z,31.97
2019-01-28T19:13:44.440Z,32.63
2019-01-28T19:16:23.649Z,27.83
2019-01-28T19:18:59.999Z,34.57
2019-01-28T19:21:42.808Z,30.87
2019-01-28T19:24:13.449Z,23.37
2019-01-28T19:26:44.484Z,65.13
2019-01-28T19:29:15.354Z,27.00
2019-01-28T19:31:46.859Z,27.27
2019-01-28T19:34:17.804Z,29.37
2019-01-28T19:36:48.804Z,55.10
2019-01-28T19:39:19.809Z,39.10
2019-01-28T19:41:51.070Z,35.90
2019-01-28T19:44:22.432Z,22.97
2019-01-28T19:46:53.809Z,38.47
2019-01-28T19:49:25.029Z,28.60
2019-01-28T19:51:56.459Z,43.37
2019-01-28T19:54:27.700Z,25.43
2019-01-28T19:56:59.061Z,39.60
2019-01-28T19:59:30.050Z,33.80
2019-01-28T20:02:01.464Z,38.07
2019-01-28T20:04:32.854Z,31.93
2019-01-28T20:07:04.100Z,27.43
2019-01-28T20:09:35.705Z,29.13
2019-01-28T20:12:06.999Z,30.10
2019-01-28T20:14:38.335Z,32.30
2019-01-28T20:17:09.424Z,27.27
2019-01-28T20:19:40.330Z,32.50
2019-01-28T20:22:11.145Z,27.10
2019-01-28T20:24:42.151Z,26.83
2019-01-28T20:27:13.539Z,26.93
2019-01-28T20:29:44.515Z,29.00
2019-01-28T20:32:15.764Z,26.53
2019-01-28T20:34:46.905Z,30.00
2019-01-28T20:37:19.659Z,29.43
2019-01-28T20:39:50.319Z,28.67
2019-01-28T20:42:21.851Z,32.60
2019-01-28T20:44:53.440Z,31.13
2019-01-28T20:47:24.771Z,31.03
2019-01-28T20:49:55.919Z,32.57
2019-01-28T20:52:27.449Z,31.33
2019-01-28T20:54:58.290Z,33.43
2019-01-28T20:57:29.482Z,32.00
2019-01-28T21:00:00.370Z,32.17
2019-01-28T21:02:31.285Z,29.83
2019-01-28T21:05:02.293Z,28.27
2019-01-28T21:07:33.139Z,28.77
2019-01-28T21:10:03.938Z,29.37
2019-01-28T21:12:35.278Z,29.50
2019-01-28T21:15:08.046Z,28.93
2019-01-28T21:17:39.314Z,28.20
2019-01-28T21:20:12.621Z,28.90
2019-01-28T21:22:43.953Z,28.47
2019-01-28T21:25:19.946Z,32.70
2019-01-28T21:27:50.857Z,24.17
2019-01-28T21:30:26.870Z,27.07
2019-01-28T21:32:57.975Z,24.37
2019-01-28T21:35:43.800Z,25.50
2019-01-28T21:38:18.386Z,29.73
2019-01-28T21:40:49.529Z,29.60
2019-01-28T21:43:20.399Z,32.57
2019-01-28T21:45:51.459Z,33.90
2019-01-28T21:48:22.284Z,34.07
2019-01-28T21:50:53.135Z,33.23
2019-01-28T21:53:25.424Z,24.40
2019-01-28T21:55:56.659Z,33.23
2019-01-28T21:58:27.364Z,32.53
2019-01-28T22:00:58.625Z,33.23
2019-01-28T22:03:29.584Z,36.13
2019-01-28T22:06:00.489Z,34.17
2019-01-28T22:08:31.388Z,35.47
2019-01-28T22:11:01.970Z,33.63
2019-01-28T22:13:32.929Z,35.67
2019-01-28T22:16:04.065Z,33.97
2019-01-28T22:18:35.060Z,34.37
2019-01-28T22:21:09.824Z,32.67
2019-01-28T22:23:40.538Z,30.13
2019-01-28T22:26:11.832Z,29.67
2019-01-28T22:28:42.774Z,33.60
2019-01-28T22:31:13.801Z,31.27
2019-01-28T22:33:44.484Z,30.23
2019-01-28T22:36:15.679Z,30.30
2019-01-28T22:38:47.047Z,30.30
2019-01-28T22:41:18.229Z,32.83
2019-01-28T22:43:48.954Z,34.27
2019-01-28T22:46:20.104Z,31.33
2019-01-28T22:48:51.001Z,33.00
2019-01-28T22:51:22.239Z,31.20
2019-01-28T22:53:52.999Z,31.20
2019-01-28T22:56:24.207Z,30.40
2019-01-28T22:58:55.139Z,33.73
2019-01-28T23:01:35.599Z,28.47
2019-01-28T23:04:07.739Z,29.10
2019-01-28T23:06:38.674Z,27.83
2019-01-28T23:09:12.709Z,29.37
2019-01-28T23:11:43.361Z,28.80
2019-01-28T23:14:14.419Z,30.67
2019-01-28T23:16:45.804Z,31.23
2019-01-28T23:19:16.524Z,31.63
2019-01-28T23:21:47.264Z,29.53
2019-01-28T23:24:18.080Z,31.70
2019-01-28T23:26:48.764Z,30.00
2019-01-28T23:29:19.744Z,23.40
2019-01-28T23:31:50.774Z,26.20
2019-01-28T23:34:21.496Z,26.93
2019-01-28T23:36:52.319Z,29.27
2019-01-28T23:39:23.246Z,29.33
2019-01-28T23:41:53.784Z,26.73
2019-01-28T23:44:24.614Z,15.17
2019-01-28T23:46:55.529Z,21.13
2019-01-28T23:49:26.294Z,24.57
2019-01-28T23:51:57.309Z,21.50
2019-01-28T23:54:27.999Z,25.57
2019-01-28T23:56:58.989Z,25.97
2019-01-28T23:59:29.619Z,25.80
